Time;durP1;ratioP1;P1;durP2;ratioP2;P2;SDS_P1;SDS_P2;PMS_P1;PMS_P2;Temp;Humidity;BMP_temperature;BMP_pressure;BME280_temperature;BME280_humidity;BME280_pressure;Samples;Min_cycle;Max_cycle;Signal;HPM_P1;HPM_P2
2022/12/20 00:02:01;;;;;;;;;;;;;;;0.52;65.90;102072.91;4951123;29;19976;-91
2022/12/20 00:04:26;;;;;;;;;;;;;;;0.66;65.77;102087.66;4948774;28;19972;-92
2022/12/20 00:06:52;;;;;;;;;;;;;;;0.71;66.30;102091.47;4950622;29;20737;-91
2022/12/20 00:09:18;;;;;;;;;;;;;;;0.79;65.90;102094.56;4949889;29;20384;-93
2022/12/20 00:11:43;;;;;;;;;;;;;;;0.73;66.25;102086.38;4951110;29;20420;-93
2022/12/20 00:14:09;;;;;;;;;;;;;;;0.84;66.24;102085.34;4942586;29;19914;-93
2022/12/20 00:16:35;;;;;;;;;;;;;;;0.80;66.14;102090.25;4950122;29;19918;-92
2022/12/20 00:19:02;;;;;;;;;;;;;;;0.87;65.76;102088.13;4949464;29;20445;-93
2022/12/20 00:21:28;;;;;;;;;;;;;;;0.67;66.34;102094.66;4944015;28;19918;-93
2022/12/20 00:23:54;;;;;;;;;;;;;;;0.51;67.42;102087.59;4949349;29;19910;-92
2022/12/20 00:26:22;;;;;;;;;;;;;;;0.64;67.52;102089.28;4949870;28;19925;-92
2022/12/20 00:28:48;;;;;;;;;;;;;;;0.50;67.41;102087.50;4951516;29;19918;-91
2022/12/20 00:31:14;;;;;;;;;;;;;;;0.39;68.23;102081.63;4950667;29;19930;-93
2022/12/20 00:33:40;;;;;;;;;;;;;;;0.45;67.94;102083.69;4945797;28;19960;-93
2022/12/20 00:36:06;;;;;;;;;;;;;;;0.05;68.81;102091.50;4949566;29;19923;-92
2022/12/20 00:38:31;;;;;;;;;;;;;;;-0.07;69.49;102074.31;4950244;29;19933;-93
2022/12/20 00:41:08;;;;;;;;;;;;;;;0.01;69.75;102085.22;4950829;29;19918;-93
2022/12/20 00:43:35;;;;;;;;;;;;;;;0.05;69.99;102074.25;4951085;29;19914;-92
2022/12/20 00:46:01;;;;;;;;;;;;;;;-0.12;69.85;102067.94;4949834;29;19918;-93
2022/12/20 00:48:28;;;;;;;;;;;;;;;-0.28;70.20;102073.81;4946110;29;20714;-93
2022/12/20 00:50:57;;;;;;;;;;;;;;;-0.24;70.26;102072.31;4948142;29;19964;-92
2022/12/20 00:53:23;;;;;;;;;;;;;;;-0.21;70.28;102073.41;4946385;29;19923;-94
2022/12/20 00:55:49;;;;;;;;;;;;;;;-0.48;71.24;102062.09;4947390;29;19927;-93
2022/12/20 00:58:14;;;;;;;;;;;;;;;-0.52;71.58;102064.38;4929820;29;19922;-94
2022/12/20 01:00:39;;;;;;;;;;;;;;;-0.74;72.72;102060.31;4946369;29;20128;-94
2022/12/20 01:03:05;;;;;;;;;;;;;;;-0.86;73.76;102057.78;4948749;29;20089;-93
2022/12/20 01:05:31;;;;;;;;;;;;;;;-1.06;74.64;102056.38;4949925;29;20020;-92
2022/12/20 01:07:56;;;;;;;;;;;;;;;-1.10;75.04;102050.09;4937056;29;19922;-91
2022/12/20 01:10:22;;;;;;;;;;;;;;;-1.41;76.72;102041.84;4959381;28;19923;-92
2022/12/20 01:12:47;;;;;;;;;;;;;;;-1.36;76.59;102053.44;4950066;28;19961;-92
2022/12/20 01:15:12;;;;;;;;;;;;;;;-1.18;75.99;102046.06;4941734;28;20004;-92
2022/12/20 01:17:38;;;;;;;;;;;;;;;-1.08;75.45;102043.31;4948557;28;19974;-92
2022/12/20 01:20:04;;;;;;;;;;;;;;;-0.82;74.57;102039.06;4947539;28;20309;-92
2022/12/20 01:22:31;;;;;;;;;;;;;;;-0.64;73.41;102038.50;4943145;29;19925;-94
2022/12/20 01:24:56;;;;;;;;;;;;;;;-0.81;73.53;102030.47;4948386;28;19918;-92
2022/12/20 01:27:21;;;;;;;;;;;;;;;-1.00;74.13;102030.91;4943116;28;19921;-92
2022/12/20 01:29:47;;;;;;;;;;;;;;;-0.73;74.11;102037.09;4949974;28;19922;-92
2022/12/20 01:32:13;;;;;;;;;;;;;;;-0.72;73.83;102027.63;4949552;29;19925;-93
2022/12/20 01:34:38;;;;;;;;;;;;;;;-0.82;73.71;102022.59;4949170;29;19926;-92
2022/12/20 01:37:04;;;;;;;;;;;;;;;-0.56;73.56;102017.50;4947936;29;19920;-92
2022/12/20 01:39:29;;;;;;;;;;;;;;;-0.50;72.72;102009.22;4949826;29;19919;-92
2022/12/20 01:41:54;;;;;;;;;;;;;;;-0.72;73.01;102012.06;4946379;29;19930;-92
2022/12/20 01:44:20;;;;;;;;;;;;;;;-0.92;74.02;102003.81;4931701;29;20416;-91
2022/12/20 01:46:46;;;;;;;;;;;;;;;-0.82;73.83;102010.56;4940656;29;19925;-92
2022/12/20 01:49:14;;;;;;;;;;;;;;;-0.54;73.24;102015.00;4938103;28;19923;-91
2022/12/20 01:51:43;;;;;;;;;;;;;;;-0.37;72.78;102004.06;4949299;29;20033;-90
2022/12/20 01:54:14;;;;;;;;;;;;;;;-0.23;72.29;102006.66;4949146;29;19971;-90
2022/12/20 01:56:41;;;;;;;;;;;;;;;-0.17;71.79;102001.88;4949275;29;20670;-89
2022/12/20 01:59:07;;;;;;;;;;;;;;;-0.23;71.50;101996.28;4948176;28;20013;-90
2022/12/20 02:01:33;;;;;;;;;;;;;;;-0.33;71.88;101997.34;4949117;29;20658;-90
2022/12/20 02:03:58;;;;;;;;;;;;;;;-0.17;71.31;102003.56;4949347;29;20411;-93
2022/12/20 02:06:25;;;;;;;;;;;;;;;-0.43;71.49;101995.88;4948079;29;20000;-93
2022/12/20 02:08:51;;;;;;;;;;;;;;;-0.61;72.36;102005.91;4929929;29;20413;-90
2022/12/20 02:11:40;;;;;;;;;;;;;;;-0.45;72.14;102001.72;4929147;29;20344;-91
2022/12/20 02:14:14;;;;;;;;;;;;;;;-0.38;72.04;102003.94;4921614;29;19969;-92
2022/12/20 02:17:00;;;;;;;;;;;;;;;-0.30;71.33;101992.38;4932263;29;19945;-91
2022/12/20 02:19:37;;;;;;;;;;;;;;;-0.43;71.91;101989.78;4921888;29;20006;-92
2022/12/20 02:22:26;;;;;;;;;;;;;;;-0.28;71.40;101990.81;4928884;29;20063;-91
2022/12/20 02:25:00;;;;;;;;;;;;;;;-0.24;71.42;101976.31;4930025;29;19914;-91
2022/12/20 02:27:28;;;;;;;;;;;;;;;-0.19;71.33;101983.63;4931415;29;20021;-92
2022/12/20 02:30:09;;;;;;;;;;;;;;;-0.30;71.44;101979.41;4931555;29;20385;-92
2022/12/20 02:32:54;;;;;;;;;;;;;;;-0.30;71.29;101978.50;4932042;29;19950;-92
2022/12/20 02:35:21;;;;;;;;;;;;;;;-0.24;71.30;101989.28;4916504;29;20005;-93
2022/12/20 02:37:51;;;;;;;;;;;;;;;-0.26;71.29;101988.31;4917082;29;19919;-92
2022/12/20 02:40:18;;;;;;;;;;;;;;;-0.31;71.04;101989.69;4931850;29;19924;-93
2022/12/20 02:42:44;;;;;;;;;;;;;;;-0.29;71.29;101975.13;4925152;29;19961;-93
2022/12/20 02:45:16;;;;;;;;;;;;;;;-0.47;71.76;101977.41;4932250;29;19954;-92
2022/12/20 02:47:46;;;;;;;;;;;;;;;-0.40;71.71;101982.22;4932734;29;19925;-92
2022/12/20 02:50:13;;;;;;;;;;;;;;;-0.50;72.14;101979.81;4934273;29;19979;-93
2022/12/20 02:52:38;;;;;;;;;;;;;;;-0.38;71.79;101975.41;4932038;29;19922;-91
2022/12/20 02:55:04;;;;;;;;;;;;;;;-0.52;72.43;101971.91;4932484;29;19995;-93
2022/12/20 02:57:51;;;;;;;;;;;;;;;-0.40;72.12;101977.03;4931875;29;20083;-92
2022/12/20 03:00:22;;;;;;;;;;;;;;;-0.59;72.38;101955.06;4931711;29;19926;-92
2022/12/20 03:05:34;;;;;;;;;;;;;;;-0.50;71.72;101972.91;4914910;29;20032;-87
2022/12/20 03:08:00;;;;;;;;;;;;;;;-0.52;72.03;101973.63;4928553;29;19922;-91
2022/12/20 03:10:25;;;;;;;;;;;;;;;-0.87;72.71;101978.22;4914837;29;20025;-91
2022/12/20 03:12:51;;;;;;;;;;;;;;;-0.94;73.63;101968.25;4933536;29;19918;-90
2022/12/20 03:15:16;;;;;;;;;;;;;;;-0.80;73.52;101964.88;4915794;29;19919;-90
2022/12/20 03:17:41;;;;;;;;;;;;;;;-0.81;73.53;101964.78;4915503;29;20006;-92
2022/12/20 03:20:10;;;;;;;;;;;;;;;-0.67;73.17;101965.72;4921050;29;19958;-92
2022/12/20 03:22:35;;;;;;;;;;;;;;;-0.69;72.96;101970.78;4946867;29;19922;-90
2022/12/20 03:25:00;;;;;;;;;;;;;;;-1.26;74.81;101965.22;4951383;29;19922;-90
2022/12/20 03:27:27;;;;;;;;;;;;;;;-1.12;74.64;101958.41;4934218;29;19962;-92
2022/12/20 03:29:52;;;;;;;;;;;;;;;-0.93;74.62;101962.25;4918500;29;19930;-90
2022/12/20 03:32:17;;;;;;;;;;;;;;;-0.75;73.78;101967.78;4952073;29;19918;-89
2022/12/20 03:34:43;;;;;;;;;;;;;;;-0.87;74.04;101973.03;4950587;29;19949;-90
2022/12/20 03:37:08;;;;;;;;;;;;;;;-0.88;73.93;101970.34;4950916;29;20004;-91
2022/12/20 03:39:34;;;;;;;;;;;;;;;-0.97;74.21;101971.53;4949047;28;20416;-90
2022/12/20 03:41:59;;;;;;;;;;;;;;;-0.88;74.54;101967.75;4951075;29;19915;-90
2022/12/20 03:44:25;;;;;;;;;;;;;;;-0.76;74.00;101982.47;4950549;29;19926;-91
2022/12/20 03:46:50;;;;;;;;;;;;;;;-0.86;73.64;101982.63;4950271;29;20005;-91
2022/12/20 03:49:15;;;;;;;;;;;;;;;-1.03;74.31;101976.28;4950835;29;19926;-92
2022/12/20 03:51:41;;;;;;;;;;;;;;;-0.86;73.91;101981.72;4950383;29;20393;-91
2022/12/20 03:54:06;;;;;;;;;;;;;;;-0.79;73.73;101983.91;4950249;29;19918;-90
2022/12/20 03:56:32;;;;;;;;;;;;;;;-0.66;73.24;101981.38;4932664;29;19918;-91
2022/12/20 03:58:57;;;;;;;;;;;;;;;-0.65;72.50;101983.19;4936056;29;19966;-91
2022/12/20 04:01:24;;;;;;;;;;;;;;;-0.79;73.10;101989.09;4933469;29;20014;-91
2022/12/20 04:03:49;;;;;;;;;;;;;;;-0.77;72.47;101985.84;4951285;29;20021;-92
2022/12/20 04:06:15;;;;;;;;;;;;;;;-0.77;72.48;101982.34;4949658;28;20420;-91
2022/12/20 04:08:40;;;;;;;;;;;;;;;-0.93;72.84;101983.91;4950910;29;20440;-92
2022/12/20 04:11:15;;;;;;;;;;;;;;;-0.97;72.54;101981.88;4933660;29;19918;-93
2022/12/20 04:13:45;;;;;;;;;;;;;;;-1.03;72.69;101980.59;4950256;29;19919;-92
2022/12/20 04:16:11;;;;;;;;;;;;;;;-0.93;72.69;101980.38;4949793;29;19918;-92
2022/12/20 04:18:37;;;;;;;;;;;;;;;-0.85;72.22;101987.00;4951216;29;19922;-93
2022/12/20 04:21:02;;;;;;;;;;;;;;;-0.87;72.27;101985.09;4952617;28;19953;-93
2022/12/20 04:23:28;;;;;;;;;;;;;;;-0.81;71.89;101977.75;4969224;28;20036;-92
2022/12/20 04:25:53;;;;;;;;;;;;;;;-0.94;72.08;101983.78;4946093;29;19922;-91
2022/12/20 04:28:19;;;;;;;;;;;;;;;-1.06;72.50;101977.78;4949750;28;20001;-91
2022/12/20 04:30:44;;;;;;;;;;;;;;;-1.07;73.04;101974.28;4959542;28;19932;-94
2022/12/20 04:33:09;;;;;;;;;;;;;;;-1.12;72.81;101970.47;4953324;28;19918;-94
2022/12/20 04:35:35;;;;;;;;;;;;;;;-1.00;72.57;101978.19;4968621;28;19921;-92
2022/12/20 04:38:01;;;;;;;;;;;;;;;-0.99;72.82;101974.78;4969760;28;19969;-91
2022/12/20 04:40:27;;;;;;;;;;;;;;;-1.12;72.49;101983.44;4969361;28;19926;-91
2022/12/20 04:42:52;;;;;;;;;;;;;;;-1.11;72.46;101985.22;4969805;28;19922;-89
2022/12/20 04:45:17;;;;;;;;;;;;;;;-1.01;72.28;101985.06;4969291;28;19918;-89
2022/12/20 04:47:43;;;;;;;;;;;;;;;-1.13;72.56;101979.94;4952566;28;19922;-91
2022/12/20 04:50:08;;;;;;;;;;;;;;;-1.18;72.69;101983.00;4949679;28;20169;-92
2022/12/20 04:55:17;;;;;;;;;;;;;;;-1.14;72.62;101978.13;4950110;29;19921;-91
2022/12/20 04:57:43;;;;;;;;;;;;;;;-1.18;72.53;101977.81;4950158;28;19918;-92
2022/12/20 05:00:08;;;;;;;;;;;;;;;-1.12;72.37;101980.84;4951332;28;19929;-91
2022/12/20 05:02:34;;;;;;;;;;;;;;;-1.23;72.51;101968.84;4932937;29;19919;-92
2022/12/20 05:04:59;;;;;;;;;;;;;;;-1.30;72.38;101972.69;4950579;29;19918;-91
2022/12/20 05:07:24;;;;;;;;;;;;;;;-1.16;72.37;101974.56;4949780;29;19925;-91
2022/12/20 05:09:50;;;;;;;;;;;;;;;-1.21;72.08;101970.72;4949423;28;19973;-91
2022/12/20 05:12:15;;;;;;;;;;;;;;;-1.37;72.85;101970.47;4953141;29;19934;-94
2022/12/20 05:14:40;;;;;;;;;;;;;;;-1.30;73.00;101959.72;4951083;29;19937;-93
2022/12/20 05:17:05;;;;;;;;;;;;;;;-1.39;73.19;101957.44;4950493;28;19918;-91
2022/12/20 05:19:31;;;;;;;;;;;;;;;-1.42;73.64;101964.97;4929065;29;19977;-91
2022/12/20 05:27:27;;;;;;;;;;;;;;;-1.39;73.05;101961.69;4934194;29;19925;-90
2022/12/20 05:29:52;;;;;;;;;;;;;;;-1.41;72.98;101955.50;4951062;29;19981;-91
2022/12/20 05:32:18;;;;;;;;;;;;;;;-1.39;72.89;101956.50;4953481;29;19922;-90
2022/12/20 05:34:43;;;;;;;;;;;;;;;-1.38;72.84;101954.03;4953465;29;19961;-90
2022/12/20 05:37:09;;;;;;;;;;;;;;;-1.51;73.06;101967.81;4967169;28;20386;-90
2022/12/20 05:39:34;;;;;;;;;;;;;;;-1.43;72.34;101959.69;4951706;28;19969;-93
2022/12/20 05:42:01;;;;;;;;;;;;;;;-1.49;72.40;101958.44;4952619;29;19911;-90
2022/12/20 05:44:26;;;;;;;;;;;;;;;-1.56;72.37;101964.00;4951719;29;19968;-89
2022/12/20 05:46:52;;;;;;;;;;;;;;;-1.51;72.21;101954.88;4950458;29;19950;-90
2022/12/20 05:49:17;;;;;;;;;;;;;;;-1.50;71.95;101955.75;4948391;29;20324;-89
2022/12/20 05:51:42;;;;;;;;;;;;;;;-1.51;71.83;101960.03;4947982;29;19933;-90
2022/12/20 05:54:08;;;;;;;;;;;;;;;-1.64;72.51;101960.88;4947906;29;19919;-90
2022/12/20 05:56:33;;;;;;;;;;;;;;;-1.73;72.97;101951.56;4949171;29;19915;-90
2022/12/20 05:58:58;;;;;;;;;;;;;;;-1.69;72.96;101956.16;4947258;29;19919;-89
2022/12/20 06:01:24;;;;;;;;;;;;;;;-1.66;73.07;101952.09;4949177;28;19919;-89
2022/12/20 06:03:49;;;;;;;;;;;;;;;-1.53;72.94;101958.13;4952807;29;19918;-90
2022/12/20 06:06:15;;;;;;;;;;;;;;;-1.41;72.88;101950.34;4950570;29;19926;-90
2022/12/20 06:08:40;;;;;;;;;;;;;;;-1.29;72.20;101946.00;4935632;29;20052;-89
2022/12/20 06:11:06;;;;;;;;;;;;;;;-1.36;72.64;101949.88;4951451;29;19976;-90
2022/12/20 06:13:31;;;;;;;;;;;;;;;-1.38;73.04;101946.25;4952693;29;20368;-90
2022/12/20 06:15:56;;;;;;;;;;;;;;;-1.24;72.72;101952.38;4935334;29;19929;-90
2022/12/20 06:18:22;;;;;;;;;;;;;;;-1.17;72.51;101951.13;4951117;29;19922;-91
2022/12/20 06:20:50;;;;;;;;;;;;;;;-1.16;72.45;101955.50;4952130;29;20118;-90
2022/12/20 06:23:15;;;;;;;;;;;;;;;-1.31;72.97;101957.97;4952937;29;19929;-90
2022/12/20 06:25:42;;;;;;;;;;;;;;;-1.04;72.89;101960.63;4951861;29;20643;-92
2022/12/20 06:28:07;;;;;;;;;;;;;;;-1.02;72.63;101959.97;4934911;29;19922;-90
2022/12/20 06:30:33;;;;;;;;;;;;;;;-0.97;72.65;101955.97;4934804;29;20037;-91
2022/12/20 06:32:59;;;;;;;;;;;;;;;-0.81;72.47;101964.78;4950937;28;20632;-92
2022/12/20 06:35:24;;;;;;;;;;;;;;;-0.77;72.73;101967.69;4931988;29;20499;-91
2022/12/20 06:37:49;;;;;;;;;;;;;;;-0.84;72.93;101955.09;4949966;29;19919;-92
2022/12/20 06:40:15;;;;;;;;;;;;;;;-0.79;73.20;101956.31;4950579;29;20028;-89
2022/12/20 06:42:40;;;;;;;;;;;;;;;-0.67;72.66;101955.34;4951688;29;19918;-89
2022/12/20 06:45:06;;;;;;;;;;;;;;;-0.61;72.23;101956.63;4948856;29;19945;-92
2022/12/20 06:47:31;;;;;;;;;;;;;;;-0.45;72.02;101949.88;4950820;29;20024;-90
2022/12/20 06:49:57;;;;;;;;;;;;;;;-0.43;71.91;101956.97;4950440;29;19927;-90
2022/12/20 06:52:23;;;;;;;;;;;;;;;-0.84;71.90;101960.28;4946395;28;19929;-91
2022/12/20 06:54:48;;;;;;;;;;;;;;;-0.67;71.33;101952.75;4937856;29;19918;-89
2022/12/20 06:57:13;;;;;;;;;;;;;;;-0.73;72.12;101958.41;4951700;29;19925;-89
2022/12/20 06:59:39;;;;;;;;;;;;;;;-0.33;71.69;101961.03;4951522;29;20381;-90
2022/12/20 07:02:04;;;;;;;;;;;;;;;-0.09;71.61;101959.16;4951180;29;19973;-89
2022/12/20 07:04:29;;;;;;;;;;;;;;;-0.15;72.03;101958.75;4952330;29;19915;-90
2022/12/20 07:06:56;;;;;;;;;;;;;;;0.13;71.16;101952.75;4951820;29;20001;-89
2022/12/20 07:09:21;;;;;;;;;;;;;;;0.13;70.45;101966.59;4950275;29;20418;-86
2022/12/20 07:11:47;;;;;;;;;;;;;;;0.17;69.96;101959.91;4952081;29;20025;-91
2022/12/20 07:14:12;;;;;;;;;;;;;;;0.26;69.96;101949.22;4950982;28;20016;-88
2022/12/20 07:16:40;;;;;;;;;;;;;;;0.13;69.72;101947.56;4952287;29;20001;-85
2022/12/20 07:19:05;;;;;;;;;;;;;;;0.26;70.17;101949.22;4951114;29;19926;-86
2022/12/20 07:21:30;;;;;;;;;;;;;;;0.51;69.79;101946.44;4951839;29;19923;-85
2022/12/20 07:23:56;;;;;;;;;;;;;;;0.56;69.64;101934.66;4948346;29;20316;-87
2022/12/20 07:26:21;;;;;;;;;;;;;;;0.68;68.77;101934.47;4947670;29;19926;-89
2022/12/20 07:28:46;;;;;;;;;;;;;;;0.59;68.94;101928.72;4950075;29;19915;-89
2022/12/20 07:31:12;;;;;;;;;;;;;;;0.68;68.94;101929.28;4934148;29;19938;-88
2022/12/20 07:33:37;;;;;;;;;;;;;;;0.81;68.61;101928.34;4949516;29;19914;-87
2022/12/20 07:36:08;;;;;;;;;;;;;;;0.49;70.59;101924.69;4951373;29;19922;-87
2022/12/20 07:38:34;;;;;;;;;;;;;;;0.60;70.87;101928.81;4951090;29;19922;-86
2022/12/20 07:41:00;;;;;;;;;;;;;;;0.87;70.45;101927.00;4951492;29;20487;-87
2022/12/20 07:43:25;;;;;;;;;;;;;;;0.74;69.41;101918.38;4951769;29;20016;-88
2022/12/20 07:45:55;;;;;;;;;;;;;;;0.92;69.05;101919.47;4951424;29;19921;-87
2022/12/20 07:48:20;;;;;;;;;;;;;;;1.03;68.65;101926.19;4951251;29;20372;-87
2022/12/20 07:50:46;;;;;;;;;;;;;;;0.97;69.57;101920.63;4950326;29;20009;-87
2022/12/20 07:53:11;;;;;;;;;;;;;;;0.96;69.15;101917.94;4951111;29;19953;-86
2022/12/20 07:55:38;;;;;;;;;;;;;;;1.31;69.58;101933.03;4949627;29;19922;-87
2022/12/20 07:58:05;;;;;;;;;;;;;;;1.56;67.79;101921.44;4951384;29;20393;-89
2022/12/20 08:00:30;;;;;;;;;;;;;;;1.10;68.58;101918.78;4948818;29;19918;-86
2022/12/20 08:03:07;;;;;;;;;;;;;;;1.10;69.03;101906.69;4951046;29;19919;-87
2022/12/20 08:05:33;;;;;;;;;;;;;;;1.46;68.64;101921.75;4950374;29;20004;-88
2022/12/20 08:08:00;;;;;;;;;;;;;;;1.60;70.16;101915.63;4934002;29;20686;-90
2022/12/20 08:10:26;;;;;;;;;;;;;;;1.83;67.96;101910.81;4950847;29;19929;-89
2022/12/20 08:12:52;;;;;;;;;;;;;;;1.55;68.34;101907.53;4917938;29;19919;-91
2022/12/20 08:15:18;;;;;;;;;;;;;;;1.84;68.02;101905.69;4950616;29;19918;-89
2022/12/20 08:17:43;;;;;;;;;;;;;;;1.51;67.87;101905.56;4950753;29;19965;-89
2022/12/20 08:20:09;;;;;;;;;;;;;;;1.03;70.12;101891.53;4950975;29;19926;-87
2022/12/20 08:22:34;;;;;;;;;;;;;;;1.14;70.31;101889.56;4950480;29;19973;-91
2022/12/20 08:25:00;;;;;;;;;;;;;;;1.54;70.63;101891.84;4932623;29;19922;-84
2022/12/20 08:27:25;;;;;;;;;;;;;;;2.02;69.67;101886.69;4950282;29;19925;-83
2022/12/20 08:29:50;;;;;;;;;;;;;;;2.33;67.57;101887.56;4949207;29;19922;-89
2022/12/20 08:32:16;;;;;;;;;;;;;;;1.73;68.72;101878.16;4933098;29;20508;-90
2022/12/20 08:34:41;;;;;;;;;;;;;;;1.75;69.06;101882.66;4950294;29;19922;-90
2022/12/20 08:37:06;;;;;;;;;;;;;;;1.82;67.71;101878.66;4950268;29;19962;-91
2022/12/20 08:39:32;;;;;;;;;;;;;;;1.77;68.09;101885.34;4949324;29;19918;-88
2022/12/20 08:41:57;;;;;;;;;;;;;;;1.80;68.93;101875.09;4950468;29;19918;-91
2022/12/20 08:44:22;;;;;;;;;;;;;;;1.69;68.17;101878.81;4934160;29;19954;-90
2022/12/20 08:46:48;;;;;;;;;;;;;;;1.82;67.99;101875.19;4931198;29;20369;-87
2022/12/20 08:49:13;;;;;;;;;;;;;;;2.12;67.67;101860.34;4945173;29;19922;-87
2022/12/20 08:51:38;;;;;;;;;;;;;;;2.00;67.25;101857.97;4950330;29;19921;-89
2022/12/20 08:54:04;;;;;;;;;;;;;;;1.89;67.33;101859.09;4949126;29;19915;-87
2022/12/20 08:56:29;;;;;;;;;;;;;;;2.06;67.06;101852.22;4949799;29;19918;-90
2022/12/20 08:58:56;;;;;;;;;;;;;;;2.08;67.85;101853.19;4951339;29;20009;-93
2022/12/20 09:01:22;;;;;;;;;;;;;;;2.26;67.94;101846.34;4950184;29;19922;-95
2022/12/20 09:03:48;;;;;;;;;;;;;;;2.49;64.67;101851.91;4950875;29;19919;-95
2022/12/20 09:06:18;;;;;;;;;;;;;;;2.49;64.39;101850.16;4949061;29;19917;-93
2022/12/20 09:08:43;;;;;;;;;;;;;;;2.58;63.84;101843.63;4947875;29;19938;-88
2022/12/20 09:11:09;;;;;;;;;;;;;;;2.76;62.93;101841.97;4948088;29;20690;-88
2022/12/20 09:13:34;;;;;;;;;;;;;;;2.90;63.07;101839.19;4948741;29;20029;-88
2022/12/20 09:16:04;;;;;;;;;;;;;;;2.95;61.73;101830.78;4948339;29;20697;-87
2022/12/20 09:18:30;;;;;;;;;;;;;;;2.91;60.67;101833.16;4948765;29;19919;-90
2022/12/20 09:20:58;;;;;;;;;;;;;;;2.74;62.29;101827.97;4948246;29;19919;-89
2022/12/20 09:23:24;;;;;;;;;;;;;;;2.91;60.98;101817.53;4943347;29;19984;-92
2022/12/20 09:25:50;;;;;;;;;;;;;;;2.89;61.34;101820.06;4949307;29;19915;-91
2022/12/20 09:28:16;;;;;;;;;;;;;;;2.91;59.35;101810.59;4948246;29;19914;-91
2022/12/20 09:30:42;;;;;;;;;;;;;;;2.61;60.75;101805.63;4931485;29;19981;-93
2022/12/20 09:33:07;;;;;;;;;;;;;;;2.73;61.84;101804.44;4947867;29;19919;-90
2022/12/20 09:35:33;;;;;;;;;;;;;;;2.95;59.89;101801.19;4931931;29;19977;-94
2022/12/20 09:37:58;;;;;;;;;;;;;;;2.58;59.65;101805.47;4947862;28;19915;-92
2022/12/20 09:40:26;;;;;;;;;;;;;;;2.97;60.29;101797.84;4948863;29;20431;-91
2022/12/20 09:42:52;;;;;;;;;;;;;;;3.07;59.32;101785.28;4947115;29;20009;-93
2022/12/20 09:45:21;;;;;;;;;;;;;;;3.11;59.82;101785.50;4931190;29;20017;-92
2022/12/20 09:47:46;;;;;;;;;;;;;;;3.19;58.97;101778.03;4948367;29;19918;-93
2022/12/20 09:50:15;;;;;;;;;;;;;;;3.32;58.48;101775.22;4947188;29;19961;-94
2022/12/20 09:53:06;;;;;;;;;;;;;;;3.51;58.17;101769.13;4948210;29;19918;-92
2022/12/20 09:55:32;;;;;;;;;;;;;;;3.62;57.29;101761.81;4946900;29;20139;-91
2022/12/20 09:58:10;;;;;;;;;;;;;;;3.33;56.38;101758.72;4944887;29;20290;-93
2022/12/20 10:00:41;;;;;;;;;;;;;;;3.65;56.85;101742.81;4927861;29;19925;-92
2022/12/20 10:03:12;;;;;;;;;;;;;;;3.75;56.28;101745.91;4948005;29;19915;-92
2022/12/20 10:06:04;;;;;;;;;;;;;;;3.78;57.64;101729.47;4948393;29;19914;-90
2022/12/20 10:08:32;;;;;;;;;;;;;;;4.19;55.41;101737.38;4930236;29;19976;-91
2022/12/20 10:11:07;;;;;;;;;;;;;;;4.18;55.64;101735.56;4944748;29;19922;-89
2022/12/20 10:13:32;;;;;;;;;;;;;;;4.19;55.75;101730.41;4913497;29;19911;-94
2022/12/20 10:16:14;;;;;;;;;;;;;;;4.16;55.52;101729.41;4934517;29;19925;-90
2022/12/20 10:18:49;;;;;;;;;;;;;;;3.70;55.64;101723.88;4941565;29;20515;-90
2022/12/20 10:21:30;;;;;;;;;;;;;;;3.79;57.09;101712.09;4948033;28;19918;-90
2022/12/20 10:23:55;;;;;;;;;;;;;;;4.02;57.05;101713.13;4916164;29;19922;-86
2022/12/20 10:26:21;;;;;;;;;;;;;;;4.41;55.59;101708.69;4948364;29;19926;-87
2022/12/20 10:28:46;;;;;;;;;;;;;;;4.45;55.33;101712.34;4946959;29;20476;-86
2022/12/20 10:31:13;;;;;;;;;;;;;;;4.30;55.86;101696.91;4945372;29;19922;-89
2022/12/20 10:33:39;;;;;;;;;;;;;;;4.10;54.94;101696.94;4929778;29;19968;-86
2022/12/20 10:36:23;;;;;;;;;;;;;;;4.34;54.11;101692.69;4944865;29;20511;-87
2022/12/20 10:38:50;;;;;;;;;;;;;;;4.35;55.02;101681.44;4947312;29;19918;-87
2022/12/20 10:41:16;;;;;;;;;;;;;;;4.44;54.46;101677.47;4947974;29;19922;-87
2022/12/20 10:43:45;;;;;;;;;;;;;;;4.63;53.84;101668.69;4948761;29;19965;-89
2022/12/20 10:46:12;;;;;;;;;;;;;;;4.38;54.07;101671.09;4948140;29;19919;-88
2022/12/20 10:48:39;;;;;;;;;;;;;;;4.53;54.09;101663.91;4949850;28;20377;-87
2022/12/20 10:51:07;;;;;;;;;;;;;;;4.35;54.68;101658.78;4952008;29;19962;-87
2022/12/20 10:53:33;;;;;;;;;;;;;;;4.56;54.93;101650.94;4952581;29;19918;-89
2022/12/20 10:56:11;;;;;;;;;;;;;;;4.58;54.65;101649.28;4950810;29;20459;-89
2022/12/20 10:58:37;;;;;;;;;;;;;;;4.45;54.07;101652.25;4950867;29;19960;-88
2022/12/20 11:01:09;;;;;;;;;;;;;;;4.54;55.38;101649.09;4930091;29;19957;-88
2022/12/20 11:03:48;;;;;;;;;;;;;;;4.32;54.49;101640.38;4950761;29;19945;-88
2022/12/20 11:06:15;;;;;;;;;;;;;;;4.60;53.05;101637.19;4950140;29;19918;-88
2022/12/20 11:08:40;;;;;;;;;;;;;;;4.56;54.99;101630.03;4933973;29;20005;-89
2022/12/20 11:11:11;;;;;;;;;;;;;;;4.24;53.46;101631.34;4949440;29;20008;-89
2022/12/20 11:13:37;;;;;;;;;;;;;;;4.01;53.62;101618.19;4952058;29;19914;-88
2022/12/20 11:16:02;;;;;;;;;;;;;;;4.45;53.11;101616.53;4949816;29;19925;-88
2022/12/20 11:18:34;;;;;;;;;;;;;;;4.88;53.43;101612.13;4948231;29;19914;-88
2022/12/20 11:21:05;;;;;;;;;;;;;;;4.89;51.36;101608.66;4947710;29;19925;-88
2022/12/20 11:23:47;;;;;;;;;;;;;;;5.11;51.34;101609.50;4942950;29;19929;-88
2022/12/20 11:26:25;;;;;;;;;;;;;;;5.03;51.71;101593.50;4941456;29;19926;-91
2022/12/20 11:29:15;;;;;;;;;;;;;;;5.39;51.64;101590.47;4945702;29;19922;-88
2022/12/20 11:31:43;;;;;;;;;;;;;;;5.47;50.91;101578.56;4937712;29;19969;-89
2022/12/20 11:34:11;;;;;;;;;;;;;;;5.53;50.78;101577.88;4942966;29;19922;-90
2022/12/20 11:36:52;;;;;;;;;;;;;;;5.40;50.14;101570.44;4938957;29;19953;-88
2022/12/20 11:39:33;;;;;;;;;;;;;;;5.40;49.86;101563.47;4938002;29;19918;-88
2022/12/20 11:42:17;;;;;;;;;;;;;;;5.31;51.04;101563.13;4947402;29;19982;-95
2022/12/20 11:44:52;;;;;;;;;;;;;;;5.64;51.13;101554.69;4946116;29;20035;-94
2022/12/20 11:47:36;;;;;;;;;;;;;;;5.37;50.74;101558.13;4930153;29;19918;-93
2022/12/20 11:50:02;;;;;;;;;;;;;;;4.81;51.63;101548.22;4947116;28;19933;-94
2022/12/20 11:52:35;;;;;;;;;;;;;;;5.28;50.81;101544.69;4948485;29;19922;-94
2022/12/20 11:55:02;;;;;;;;;;;;;;;5.19;50.67;101543.53;4948928;29;19922;-91
2022/12/20 11:57:35;;;;;;;;;;;;;;;5.20;50.49;101544.41;4941383;29;19922;-94
2022/12/20 12:00:05;;;;;;;;;;;;;;;5.25;50.67;101539.34;4945863;28;20398;-91
2022/12/20 12:02:34;;;;;;;;;;;;;;;5.19;53.09;101534.81;4945095;28;19961;-90
2022/12/20 12:05:03;;;;;;;;;;;;;;;5.30;51.92;101528.22;4950619;29;19953;-94
2022/12/20 12:07:34;;;;;;;;;;;;;;;5.34;51.41;101526.59;4951517;29;19934;-91
2022/12/20 12:09:59;;;;;;;;;;;;;;;4.89;51.32;101518.88;4950161;29;19929;-94
2022/12/20 12:12:32;;;;;;;;;;;;;;;4.98;51.13;101522.69;4942601;28;19943;-95
2022/12/20 12:15:30;;;;;;;;;;;;;;;5.32;51.77;101510.84;4933436;29;20369;-93
2022/12/20 12:18:05;;;;;;;;;;;;;;;5.55;50.62;101510.78;4921562;29;19921;-92
2022/12/20 12:20:48;;;;;;;;;;;;;;;5.61;50.56;101504.84;4932802;29;20013;-92
2022/12/20 12:23:26;;;;;;;;;;;;;;;5.35;50.68;101504.84;4944082;29;19918;-91
2022/12/20 12:25:52;;;;;;;;;;;;;;;5.60;50.38;101506.56;4932916;29;20017;-92
2022/12/20 12:28:18;;;;;;;;;;;;;;;5.68;50.81;101497.25;4931404;29;20381;-93
2022/12/20 12:30:47;;;;;;;;;;;;;;;5.63;50.15;101505.78;4931984;29;19961;-90
2022/12/20 12:33:21;;;;;;;;;;;;;;;5.87;49.72;101497.84;4917825;29;19919;-94
2022/12/20 12:36:28;;;;;;;;;;;;;;;5.94;50.01;101497.22;4948118;28;19923;-95
2022/12/20 12:39:15;;;;;;;;;;;;;;;6.04;48.46;101499.34;4925262;29;19922;-95
2022/12/20 12:41:57;;;;;;;;;;;;;;;5.78;48.57;101501.06;4954842;29;19914;-95
2022/12/20 12:44:29;;;;;;;;;;;;;;;5.83;48.91;101503.84;4954218;29;19918;-92
2022/12/20 12:46:57;;;;;;;;;;;;;;;5.83;48.70;101499.50;4949262;29;19918;-92
2022/12/20 12:49:26;;;;;;;;;;;;;;;5.60;50.24;101496.09;4950506;29;19918;-93
2022/12/20 12:51:54;;;;;;;;;;;;;;;5.74;49.37;101493.94;4932806;29;19973;-94
2022/12/20 12:54:39;;;;;;;;;;;;;;;5.76;49.17;101492.25;4950793;29;20677;-93
2022/12/20 12:57:08;;;;;;;;;;;;;;;5.67;50.15;101490.25;4933983;29;19926;-94
2022/12/20 12:59:33;;;;;;;;;;;;;;;5.66;50.19;101487.56;4948428;28;19914;-95